Time;durP1;ratioP1;P1;durP2;ratioP2;P2;SDS_P1;SDS_P2;PMS_P1;PMS_P2;Temp;Humidity;BMP_temperature;BMP_pressure;BME280_temperature;BME280_humidity;BME280_pressure;Samples;Min_cycle;Max_cycle;Signal;HPM_P1;HPM_P2
2022/05/29 00:00:25;;;;;;;65.85;6.90;;;10.80;92.80;;;;;;5076236;28;20191;-86
2022/05/29 00:02:50;;;;;;;68.80;6.85;;;10.70;95.20;;;;;;5076362;28;20188;-87
2022/05/29 00:05:19;;;;;;;66.17;7.37;;;10.60;97.40;;;;;;5076724;28;20164;-86
2022/05/29 00:07:49;;;;;;;66.88;6.22;;;10.60;96.20;;;;;;5075036;28;20642;-85
2022/05/29 00:10:17;;;;;;;65.38;6.70;;;10.60;96.90;;;;;;5075431;28;20183;-85
2022/05/29 00:12:43;;;;;;;66.85;7.07;;;10.60;96.90;;;;;;5075023;28;20195;-87
2022/05/29 00:15:11;;;;;;;66.27;6.10;;;10.60;96.70;;;;;;5077222;28;20658;-86
2022/05/29 00:17:36;;;;;;;66.07;7.18;;;10.60;97.60;;;;;;5077759;28;21005;-87
2022/05/29 00:20:03;;;;;;;71.20;8.03;;;10.50;99.40;;;;;;5076942;28;20199;-87
2022/05/29 00:22:33;;;;;;;67.10;9.07;;;10.40;99.90;;;;;;5076386;28;20274;-87
2022/05/29 00:24:58;;;;;;;71.20;10.10;;;10.40;99.90;;;;;;5075843;28;20160;-87
2022/05/29 00:27:24;;;;;;;67.27;8.73;;;10.50;99.80;;;;;;5077094;28;20187;-87
2022/05/29 00:29:50;;;;;;;69.67;8.07;;;10.60;99.00;;;;;;5077418;28;20164;-87
2022/05/29 00:32:16;;;;;;;65.27;7.13;;;10.60;97.20;;;;;;5075476;28;20191;-87
2022/05/29 00:34:41;;;;;;;67.80;7.80;;;10.80;93.90;;;;;;5076351;28;20461;-87
2022/05/29 00:37:09;;;;;;;67.57;6.87;;;10.90;94.00;;;;;;5076135;28;20237;-87
2022/05/29 00:39:35;;;;;;;70.25;7.35;;;10.90;93.10;;;;;;5077419;28;20235;-87
2022/05/29 00:42:10;;;;;;;65.33;5.90;;;11.00;91.30;;;;;;5076123;28;20188;-87
2022/05/29 00:44:36;;;;;;;69.93;5.95;;;10.80;93.50;;;;;;5077535;28;20147;-87
2022/05/29 00:47:16;;;;;;;71.70;7.40;;;10.80;93.40;;;;;;5077254;28;20169;-87
2022/05/29 00:49:44;;;;;;;68.63;7.15;;;10.70;94.70;;;;;;5075788;28;20406;-87
2022/05/29 00:52:19;;;;;;;69.70;8.18;;;10.80;94.30;;;;;;5076399;28;20179;-86
2022/05/29 00:54:53;;;;;;;66.72;6.55;;;10.70;95.50;;;;;;5076990;28;20246;-87
2022/05/29 00:57:24;;;;;;;66.63;9.68;;;10.60;97.60;;;;;;5076803;28;20612;-87
2022/05/29 00:59:50;;;;;;;66.28;8.45;;;10.50;99.30;;;;;;5076303;28;20266;-87
2022/05/29 01:02:15;;;;;;;71.43;10.10;;;10.40;99.90;;;;;;5076099;28;20226;-86
2022/05/29 01:04:45;;;;;;;67.70;11.57;;;10.40;99.90;;;;;;5076756;28;20428;-87
2022/05/29 01:07:14;;;;;;;73.85;19.77;;;10.20;99.90;;;;;;5077494;28;20152;-87
2022/05/29 01:09:42;;;;;;;69.85;17.13;;;10.20;99.90;;;;;;5076785;28;20651;-86
2022/05/29 01:12:41;;;;;;;67.60;13.77;;;10.20;99.90;;;;;;5075866;28;20206;-87
2022/05/29 01:15:41;;;;;;;69.63;17.00;;;10.20;99.90;;;;;;5076359;28;20240;-87
2022/05/29 01:18:12;;;;;;;72.72;17.38;;;10.20;99.90;;;;;;5076705;28;20171;-87
2022/05/29 01:20:41;;;;;;;68.93;15.93;;;10.10;99.90;;;;;;5076577;28;20223;-87
2022/05/29 01:23:18;;;;;;;73.35;26.13;;;9.90;99.90;;;;;;5075620;28;20201;-87
2022/05/29 01:25:47;;;;;;;72.93;21.75;;;9.90;99.90;;;;;;5075103;28;20167;-87
2022/05/29 01:28:15;;;;;;;76.85;22.70;;;9.90;99.90;;;;;;5075592;28;20169;-87
2022/05/29 01:30:54;;;;;;;70.72;22.67;;;10.00;99.90;;;;;;5075735;28;20616;-87
2022/05/29 01:33:46;;;;;;;69.82;17.55;;;10.00;99.90;;;;;;5075800;28;20162;-87
2022/05/29 01:36:27;;;;;;;72.75;25.17;;;9.90;99.90;;;;;;5075941;28;20156;-87
2022/05/29 01:39:01;;;;;;;73.55;26.35;;;9.80;99.90;;;;;;5076154;28;20199;-87
2022/05/29 01:41:37;;;;;;;72.78;28.83;;;9.80;99.90;;;;;;5075415;28;20232;-87
2022/05/29 01:44:10;;;;;;;71.88;26.45;;;9.60;99.90;;;;;;5077025;28;20146;-87
2022/05/29 01:46:36;;;;;;;73.88;33.38;;;9.70;99.90;;;;;;5076691;28;20176;-86
2022/05/29 01:49:14;;;;;;;74.10;33.22;;;9.60;99.90;;;;;;5080520;28;20179;-87
2022/05/29 01:51:55;;;;;;;72.47;27.77;;;9.60;99.90;;;;;;5079178;28;20195;-87
2022/05/29 01:54:27;;;;;;;77.35;30.98;;;9.70;99.90;;;;;;5080219;28;20154;-86
2022/05/29 01:57:02;;;;;;;80.43;45.85;;;9.70;99.90;;;;;;5079040;28;20164;-86
2022/05/29 01:59:38;;;;;;;74.00;26.17;;;9.80;99.90;;;;;;5079286;28;20164;-87
2022/05/29 02:02:06;;;;;;;71.80;22.50;;;9.90;99.90;;;;;;5079795;28;20705;-86
2022/05/29 02:04:37;;;;;;;71.90;23.70;;;9.90;99.90;;;;;;5080232;28;20164;-86
2022/05/29 02:10:00;;;;;;;72.55;21.52;;;9.90;99.90;;;;;;5080103;28;20206;-87
2022/05/29 02:12:29;;;;;;;73.32;25.52;;;9.80;99.90;;;;;;5079592;28;20666;-86
2022/05/29 02:15:01;;;;;;;74.95;28.25;;;9.80;99.90;;;;;;5078066;28;20271;-86
2022/05/29 02:17:39;;;;;;;84.65;37.85;;;9.60;99.90;;;;;;5079721;28;20168;-87
2022/05/29 02:20:17;;;;;;;79.47;38.63;;;9.60;99.90;;;;;;5078320;28;20191;-87
2022/05/29 02:22:45;;;;;;;74.93;25.75;;;9.60;99.90;;;;;;5079168;28;20183;-86
2022/05/29 02:25:18;;;;;;;71.13;22.73;;;9.70;99.90;;;;;;5079638;28;20164;-86
2022/05/29 02:27:51;;;;;;;70.97;18.25;;;9.70;99.90;;;;;;5079982;28;20151;-86
2022/05/29 02:30:18;;;;;;;79.10;43.35;;;9.70;99.90;;;;;;5078295;28;20164;-86
2022/05/29 02:33:09;;;;;;;73.78;26.17;;;9.60;99.90;;;;;;5078174;28;20195;-86
2022/05/29 02:35:45;;;;;;;74.68;32.35;;;9.80;99.90;;;;;;5079919;28;20250;-86
2022/05/29 02:38:26;;;;;;;76.07;26.73;;;9.60;99.90;;;;;;5079582;28;20163;-86
2022/05/29 02:41:11;;;;;;;74.38;28.75;;;9.70;99.90;;;;;;5079206;28;20199;-86
2022/05/29 02:44:05;;;;;;;73.20;30.23;;;9.60;99.90;;;;;;5077971;28;20171;-87
2022/05/29 02:46:49;;;;;;;79.47;40.97;;;9.50;99.90;;;;;;5079809;28;20214;-86
2022/05/29 02:49:30;;;;;;;75.57;31.48;;;9.50;99.90;;;;;;5080120;28;20546;-87
2022/05/29 02:52:04;;;;;;;75.53;32.03;;;9.60;99.90;;;;;;5078003;28;20667;-87
2022/05/29 02:54:31;;;;;;;77.20;38.92;;;9.50;99.90;;;;;;5077961;28;20175;-87
2022/05/29 02:57:00;;;;;;;126.15;114.45;;;9.50;99.90;;;;;;5078259;28;20205;-87
2022/05/29 02:59:31;;;;;;;77.25;43.38;;;9.50;99.90;;;;;;5078820;28;20164;-87
2022/05/29 03:02:23;;;;;;;98.45;80.90;;;9.50;99.90;;;;;;5078753;28;20190;-87
2022/05/29 03:05:06;;;;;;;95.95;79.05;;;9.50;99.90;;;;;;5077485;28;20530;-87
2022/05/29 03:08:08;;;;;;;88.75;63.15;;;9.70;99.90;;;;;;5078628;28;20186;-86
2022/05/29 03:11:23;;;;;;;77.68;39.20;;;9.60;99.90;;;;;;5077726;28;20516;-86
2022/05/29 03:14:12;;;;;;;72.30;23.92;;;9.70;99.90;;;;;;5068844;28;20539;-87
2022/05/29 03:17:06;;;;;;;84.57;44.53;;;9.90;99.90;;;;;;5079205;28;20231;-86
2022/05/29 03:19:56;;;;;;;83.10;46.50;;;9.90;99.90;;;;;;5078440;28;20274;-87
2022/05/29 03:22:58;;;;;;;83.22;53.20;;;9.90;99.90;;;;;;5078657;28;20185;-86
2022/05/29 03:25:33;;;;;;;131.23;119.40;;;9.90;99.90;;;;;;5078406;28;20157;-87
2022/05/29 03:28:00;;;;;;;112.75;101.45;;;9.80;99.90;;;;;;5079071;28;20151;-86
2022/05/29 03:30:36;;;;;;;101.05;89.55;;;9.80;99.90;;;;;;5077605;28;20526;-87
2022/05/29 03:33:06;;;;;;;79.63;46.15;;;10.00;99.90;;;;;;5078672;28;20179;-87
2022/05/29 03:35:45;;;;;;;90.38;63.25;;;10.10;99.90;;;;;;5079089;28;20178;-87
2022/05/29 03:38:10;;;;;;;138.07;125.53;;;10.00;99.90;;;;;;5076815;28;20178;-87
2022/05/29 03:40:36;;;;;;;136.37;124.50;;;10.00;99.90;;;;;;5119006;22;20209;-88
2022/05/29 03:43:02;;;;;;;140.70;128.60;;;10.00;99.90;;;;;;5035476;28;20189;-88
2022/05/29 03:45:28;;;;;;;181.13;167.87;;;10.00;99.90;;;;;;5035847;28;20165;-88
2022/05/29 03:47:55;;;;;;;211.27;196.82;;;9.90;99.90;;;;;;5036844;28;20396;-88
2022/05/29 03:50:23;;;;;;;175.65;162.32;;;9.90;99.90;;;;;;5037047;28;20166;-88
2022/05/29 03:52:53;;;;;;;209.45;194.80;;;10.00;99.90;;;;;;5034884;28;20689;-88
2022/05/29 03:55:24;;;;;;;191.15;177.43;;;10.00;99.90;;;;;;5036315;28;20244;-88
2022/05/29 03:57:53;;;;;;;163.95;151.25;;;10.10;99.90;;;;;;5036670;28;20150;-88
2022/05/29 04:00:20;;;;;;;106.50;95.47;;;10.10;99.90;;;;;;5036242;28;20196;-88
2022/05/29 04:02:47;;;;;;;92.85;80.38;;;10.30;99.90;;;;;;5034963;28;20213;-88
2022/05/29 04:05:16;;;;;;;90.10;69.55;;;10.30;99.90;;;;;;5034954;28;20173;-88
2022/05/29 04:13:12;;;;;;;72.03;23.00;;;10.50;99.90;;;;;;5037211;28;20245;-88
2022/05/29 04:15:45;;;;;;;72.18;23.52;;;10.60;99.90;;;;;;5036168;28;20173;-88
2022/05/29 04:18:15;;;;;;;78.38;26.95;;;10.60;99.90;;;;;;5037062;28;20609;-88
2022/05/29 04:20:52;;;;;;;80.97;30.27;;;10.60;99.90;;;;;;5036873;28;20206;-89
2022/05/29 04:23:19;;;;;;;82.55;34.22;;;10.60;99.90;;;;;;5036039;28;20621;-89
2022/05/29 04:25:44;;;;;;;75.97;30.40;;;10.50;99.90;;;;;;5035103;28;20174;-88
2022/05/29 04:28:10;;;;;;;73.07;28.43;;;10.50;99.90;;;;;;5036099;28;20168;-88
2022/05/29 04:30:41;;;;;;;74.07;27.30;;;10.50;99.90;;;;;;5036348;28;20172;-88
2022/05/29 04:33:07;;;;;;;74.32;21.17;;;10.60;99.90;;;;;;5035376;28;20442;-87
2022/05/29 04:35:39;;;;;;;72.57;20.07;;;10.70;99.90;;;;;;5035748;28;20536;-88
2022/05/29 04:38:05;;;;;;;75.10;18.77;;;10.70;99.90;;;;;;5035868;28;20165;-88
2022/05/29 04:40:31;;;;;;;73.47;17.25;;;10.70;99.90;;;;;;5035692;28;20205;-88
2022/05/29 04:43:00;;;;;;;79.27;18.47;;;10.70;99.90;;;;;;5036417;28;20184;-88
2022/05/29 04:45:26;;;;;;;71.82;20.63;;;10.70;99.90;;;;;;5035106;28;20174;-88
2022/05/29 04:47:52;;;;;;;72.68;21.88;;;10.80;99.90;;;;;;5036211;28;20175;-89
2022/05/29 04:50:18;;;;;;;76.30;19.50;;;10.90;99.90;;;;;;5034947;28;20256;-89
2022/05/29 04:52:44;;;;;;;70.85;19.20;;;11.00;99.90;;;;;;5035292;28;20187;-88
2022/05/29 04:55:10;;;;;;;70.60;14.17;;;11.00;99.90;;;;;;5036850;28;20248;-89
2022/05/29 04:57:35;;;;;;;71.93;13.30;;;11.10;99.90;;;;;;5038181;28;20580;-88
2022/05/29 05:00:03;;;;;;;70.63;11.73;;;11.10;99.90;;;;;;5035087;28;20208;-88
2022/05/29 05:02:29;;;;;;;68.18;12.73;;;11.10;99.90;;;;;;5038041;28;20177;-88
2022/05/29 05:04:57;;;;;;;67.70;12.37;;;11.20;99.90;;;;;;5043657;28;20169;-88
2022/05/29 05:07:23;;;;;;;74.22;14.02;;;11.20;99.90;;;;;;5036312;28;20165;-88
2022/05/29 05:09:51;;;;;;;69.67;15.93;;;11.20;99.90;;;;;;5035206;28;20173;-88
2022/05/29 05:12:20;;;;;;;70.43;12.05;;;11.20;99.90;;;;;;5035046;28;20190;-88
2022/05/29 05:14:46;;;;;;;69.63;15.80;;;11.10;99.90;;;;;;5034930;28;20172;-88
2022/05/29 05:17:11;;;;;;;70.53;12.80;;;11.10;99.90;;;;;;5034321;28;20217;-88
2022/05/29 05:19:37;;;;;;;68.97;12.27;;;11.20;99.90;;;;;;5035903;28;20247;-88
2022/05/29 05:22:04;;;;;;;71.67;14.70;;;11.20;99.90;;;;;;5036052;28;20177;-88
2022/05/29 05:24:30;;;;;;;72.82;17.17;;;11.30;99.90;;;;;;5037952;28;20585;-88
2022/05/29 05:26:58;;;;;;;75.93;20.37;;;11.30;99.90;;;;;;5039277;28;20207;-88
2022/05/29 05:29:24;;;;;;;77.85;18.42;;;11.40;99.90;;;;;;5039456;28;20407;-89
2022/05/29 05:31:50;;;;;;;75.80;15.60;;;11.50;99.90;;;;;;5039239;28;20672;-88
2022/05/29 05:34:16;;;;;;;72.03;12.47;;;11.70;99.90;;;;;;5038797;28;20162;-88
2022/05/29 05:36:42;;;;;;;67.50;8.93;;;11.80;99.90;;;;;;5039346;28;20595;-88
2022/05/29 05:39:08;;;;;;;71.00;8.57;;;11.80;99.90;;;;;;5038395;28;20173;-88
2022/05/29 05:41:33;;;;;;;71.53;9.63;;;11.80;99.90;;;;;;5038912;28;20459;-88
2022/05/29 05:43:59;;;;;;;68.90;9.70;;;11.90;99.90;;;;;;5036869;28;20219;-87
2022/05/29 05:46:25;;;;;;;72.70;10.47;;;11.90;99.90;;;;;;5038710;28;20430;-88
2022/05/29 05:48:51;;;;;;;70.90;9.23;;;11.90;99.90;;;;;;5038312;28;20165;-88
2022/05/29 05:51:16;;;;;;;69.10;10.30;;;12.00;99.90;;;;;;5037787;28;20189;-88
2022/05/29 05:53:42;;;;;;;68.03;9.90;;;12.20;99.90;;;;;;5039948;28;20169;-88
2022/05/29 05:56:14;;;;;;;67.67;10.80;;;12.20;99.90;;;;;;5039693;28;20585;-88
2022/05/29 05:58:42;;;;;;;68.18;10.55;;;12.20;99.90;;;;;;5039414;28;20490;-88
2022/05/29 06:01:11;;;;;;;71.85;11.05;;;12.30;99.90;;;;;;5038166;28;20197;-87
2022/05/29 06:03:37;;;;;;;69.55;11.80;;;12.40;99.90;;;;;;5039490;28;20197;-87
2022/05/29 06:06:03;;;;;;;73.95;11.32;;;12.50;99.90;;;;;;5039365;28;20165;-88
2022/05/29 06:08:30;;;;;;;67.73;10.50;;;12.60;96.50;;;;;;5038637;28;20633;-88
2022/05/29 06:10:56;;;;;;;67.07;10.83;;;12.60;97.30;;;;;;5039563;28;20633;-88
2022/05/29 06:13:22;;;;;;;68.93;11.43;;;12.60;97.80;;;;;;5039705;28;20434;-88
2022/05/29 06:15:47;;;;;;;71.50;14.40;;;12.60;96.80;;;;;;5039780;28;20191;-87
2022/05/29 06:18:14;;;;;;;74.97;12.53;;;12.50;96.80;;;;;;5041914;28;20430;-88
2022/05/29 06:20:41;;;;;;;71.10;12.52;;;12.30;97.00;;;;;;5038196;28;20258;-87
2022/05/29 06:23:07;;;;;;;68.35;11.60;;;12.20;97.30;;;;;;5039509;28;20181;-88
2022/05/29 06:25:33;;;;;;;80.20;14.13;;;12.30;99.40;;;;;;5039483;28;20162;-88
2022/05/29 06:28:01;;;;;;;74.40;12.87;;;12.40;98.20;;;;;;5038928;28;20200;-88
2022/05/29 06:30:28;;;;;;;68.87;10.87;;;12.50;97.20;;;;;;5036953;28;20503;-88
2022/05/29 06:32:54;;;;;;;68.80;11.30;;;12.60;95.30;;;;;;5038550;28;20945;-87
2022/05/29 06:35:20;;;;;;;70.97;13.17;;;12.60;93.90;;;;;;5043097;28;20404;-88
2022/05/29 06:37:46;;;;;;;68.43;11.17;;;12.70;92.90;;;;;;5040212;28;20436;-88
2022/05/29 06:40:13;;;;;;;69.47;6.87;;;12.80;91.70;;;;;;5039257;28;20455;-88
2022/05/29 06:42:39;;;;;;;65.07;6.50;;;13.00;89.10;;;;;;5036580;28;20190;-88
2022/05/29 06:45:07;;;;;;;72.40;7.90;;;13.20;88.00;;;;;;5038897;28;20404;-88
2022/05/29 06:47:33;;;;;;;65.97;6.87;;;13.10;80.40;;;;;;5040727;28;20404;-87
2022/05/29 06:49:59;;;;;;;71.83;7.70;;;13.10;78.90;;;;;;5038094;28;20412;-87
2022/05/29 06:52:29;;;;;;;66.60;6.20;;;13.10;83.10;;;;;;5039957;28;20428;-88
2022/05/29 06:54:55;;;;;;;65.93;6.90;;;13.00;78.20;;;;;;5038076;28;20419;-88
2022/05/29 06:57:37;;;;;;;72.13;5.80;;;13.10;83.00;;;;;;5039032;28;20439;-88
2022/05/29 07:08:33;;;;;;;66.60;4.67;;;13.10;72.30;;;;;;5038380;28;20387;-88
2022/05/29 07:11:04;;;;;;;65.77;5.00;;;13.30;71.80;;;;;;5039284;28;21065;-87
2022/05/29 07:13:34;;;;;;;69.50;5.77;;;13.50;62.50;;;;;;5037019;28;20814;-87
2022/05/29 07:16:06;;;;;;;65.67;5.90;;;13.70;54.20;;;;;;5038031;28;20416;-87
2022/05/29 07:18:32;;;;;;;65.50;5.20;;;13.50;49.80;;;;;;5040044;28;20408;-88
2022/05/29 07:21:00;;;;;;;67.40;5.50;;;13.60;60.00;;;;;;5037167;28;20507;-87
2022/05/29 07:23:28;;;;;;;67.10;5.83;;;13.70;56.40;;;;;;5037882;28;20404;-88
2022/05/29 07:25:55;;;;;;;68.00;6.47;;;13.70;55.40;;;;;;5039096;28;20976;-88
2022/05/29 07:28:22;;;;;;;67.17;6.27;;;13.60;49.70;;;;;;5037965;28;20396;-88
2022/05/29 07:30:52;;;;;;;66.70;6.70;;;13.70;58.80;;;;;;5036704;28;20408;-88
2022/05/29 07:33:18;;;;;;;67.67;6.50;;;13.80;58.00;;;;;;5038489;28;20404;-87
2022/05/29 07:35:44;;;;;;;68.10;6.13;;;14.00;59.30;;;;;;5041311;28;20751;-89
2022/05/29 07:38:10;;;;;;;68.77;6.97;;;13.90;52.90;;;;;;5041221;28;20407;-88
2022/05/29 07:40:36;;;;;;;66.17;6.13;;;13.80;55.70;;;;;;5039255;28;20470;-88
2022/05/29 07:43:22;;;;;;;67.07;8.73;;;13.60;54.80;;;;;;5040624;28;20423;-87
2022/05/29 07:45:56;;;;;;;69.70;8.33;;;13.20;56.60;;;;;;5036887;28;20172;-88
2022/05/29 07:48:27;;;;;;;68.50;7.97;;;13.20;78.60;;;;;;5036802;28;20407;-88
2022/05/29 07:50:53;;;;;;;69.57;8.27;;;13.40;77.20;;;;;;5038237;28;20892;-88
2022/05/29 07:53:20;;;;;;;69.90;7.47;;;13.50;72.70;;;;;;5037603;28;20408;-87
2022/05/29 07:55:45;;;;;;;73.60;8.20;;;13.50;77.40;;;;;;5037345;28;20804;-87
2022/05/29 07:58:13;;;;;;;67.80;7.17;;;13.50;79.30;;;;;;5038250;28;20427;-87
2022/05/29 08:00:40;;;;;;;69.77;8.17;;;13.60;80.20;;;;;;5041875;28;20216;-88
2022/05/29 08:03:06;;;;;;;72.13;9.07;;;13.70;84.30;;;;;;5040228;28;20428;-87
2022/05/29 08:05:35;;;;;;;68.77;8.80;;;13.90;89.30;;;;;;5042949;28;20475;-87
2022/05/29 08:08:04;;;;;;;67.50;10.50;;;13.70;87.80;;;;;;5044091;28;20400;-88
2022/05/29 08:10:31;;;;;;;68.90;14.80;;;13.50;91.80;;;;;;5041114;28;20417;-88
2022/05/29 08:12:56;;;;;;;68.40;13.30;;;13.30;91.40;;;;;;5042716;28;20432;-88
2022/05/29 08:15:22;;;;;;;68.20;9.37;;;13.40;93.90;;;;;;5042351;28;20404;-87
2022/05/29 08:17:48;;;;;;;68.27;10.43;;;13.60;94.60;;;;;;5041946;28;20216;-88
2022/05/29 08:20:15;;;;;;;71.80;9.93;;;13.70;85.40;;;;;;5040863;28;20669;-87
2022/05/29 08:22:41;;;;;;;69.63;9.00;;;13.70;88.20;;;;;;5041028;28;20624;-88
2022/05/29 08:30:43;;;;;;;69.20;9.60;;;13.60;91.30;;;;;;5041166;28;20399;-88
2022/05/29 08:33:16;;;;;;;70.80;7.93;;;13.80;83.60;;;;;;5039439;28;20497;-87
2022/05/29 08:35:45;;;;;;;68.30;6.10;;;13.90;80.30;;;;;;5040659;28;20763;-87
2022/05/29 08:38:13;;;;;;;68.80;6.10;;;14.00;78.40;;;;;;5039516;28;20414;-87
2022/05/29 08:40:51;;;;;;;65.70;6.50;;;14.20;70.00;;;;;;5040109;28;20657;-87
2022/05/29 08:43:25;;;;;;;69.13;4.90;;;14.40;60.40;;;;;;5036179;28;20412;-88
2022/05/29 08:45:51;;;;;;;65.17;3.80;;;14.50;57.50;;;;;;5039332;28;20446;-88
2022/05/29 08:48:23;;;;;;;65.33;3.50;;;14.60;50.50;;;;;;5037247;28;20408;-87
2022/05/29 08:51:24;;;;;;;66.23;3.53;;;14.70;51.60;;;;;;5038736;28;20447;-88
2022/05/29 08:54:18;;;;;;;66.07;3.93;;;14.80;53.60;;;;;;5002396;28;20420;-87
2022/05/29 08:56:56;;;;;;;66.70;3.40;;;15.10;50.90;;;;;;5041131;28;20412;-88
2022/05/29 08:59:51;;;;;;;66.30;3.60;;;15.10;38.90;;;;;;5041968;28;20417;-87
2022/05/29 09:02:23;;;;;;;65.50;4.27;;;14.90;40.60;;;;;;5044523;28;20456;-88
2022/05/29 09:04:56;;;;;;;65.07;4.03;;;14.80;42.70;;;;;;5042033;28;20394;-86
2022/05/29 09:07:25;;;;;;;64.83;3.80;;;14.90;43.60;;;;;;5041149;28;20388;-87
2022/05/29 09:09:55;;;;;;;65.30;2.80;;;15.10;45.00;;;;;;5038941;28;20751;-87
2022/05/29 09:13:05;;;;;;;64.80;3.03;;;15.40;35.00;;;;;;5040137;28;20420;-86
2022/05/29 09:15:44;;;;;;;66.03;3.50;;;15.20;31.70;;;;;;5036809;28;20407;-86
2022/05/29 09:18:17;;;;;;;65.57;2.80;;;15.40;34.40;;;;;;5038999;28;20397;-86
2022/05/29 09:20:48;;;;;;;65.10;3.57;;;15.30;27.50;;;;;;5039285;28;20439;-87
2022/05/29 09:23:25;;;;;;;64.80;3.10;;;15.40;28.40;;;;;;5038377;28;20386;-86
2022/05/29 09:25:52;;;;;;;67.47;4.33;;;15.60;30.00;;;;;;5037477;28;20374;-86
2022/05/29 09:28:27;;;;;;;65.70;5.57;;;15.60;26.60;;;;;;5038030;28;20401;-86
2022/05/29 09:31:01;;;;;;;70.60;5.17;;;15.70;23.80;;;;;;5035975;28;20417;-87
2022/05/29 09:33:29;;;;;;;66.17;6.00;;;15.40;26.00;;;;;;5038129;28;20385;-87
2022/05/29 09:36:21;;;;;;;65.93;5.73;;;15.20;16.30;;;;;;5039292;28;20402;-88
2022/05/29 09:39:00;;;;;;;66.70;4.43;;;15.00;18.60;;;;;;5037664;28;20929;-87
2022/05/29 09:41:41;;;;;;;70.77;5.77;;;15.10;23.30;;;;;;5136169;22;20588;-84
2022/05/29 09:44:12;;;;;;;66.07;5.40;;;15.40;22.40;;;;;;5077268;28;20384;-85
2022/05/29 09:46:50;;;;;;;67.67;6.33;;;15.70;20.30;;;;;;5076415;28;20391;-88
2022/05/29 09:49:49;;;;;;;67.63;6.20;;;15.90;18.60;;;;;;5078433;28;20370;-92
2022/05/29 09:57:33;;;;;;;68.20;4.30;;;16.20;7.90;;;;;;5243961;22;20486;-88
2022/05/29 10:00:23;;;;;;;65.57;3.70;;;16.20;1.00;;;;;;5057561;28;20455;-88
2022/05/29 10:02:56;;;;;;;67.30;3.57;;;16.50;1.00;;;;;;5056480;28;20434;-86
2022/05/29 10:05:24;;;;;;;66.23;4.00;;;16.90;1.00;;;;;;5056488;28;20482;-86
2022/05/29 10:07:53;;;;;;;66.67;4.20;;;16.90;1.00;;;;;;5055640;28;20402;-86
2022/05/29 10:10:25;;;;;;;65.27;3.73;;;16.70;1.00;;;;;;5054650;28;20805;-86
2022/05/29 10:12:52;;;;;;;67.00;5.53;;;16.70;1.00;;;;;;5055928;28;20418;-86
2022/05/29 10:15:27;;;;;;;68.97;6.17;;;16.60;1.00;;;;;;5054760;28;20407;-87
2022/05/29 10:18:05;;;;;;;67.70;6.00;;;16.50;1.00;;;;;;5057045;28;20436;-87
2022/05/29 10:20:38;;;;;;;67.90;4.60;;;16.30;1.00;;;;;;5056945;28;20512;-89
2022/05/29 10:23:28;;;;;;;69.60;4.67;;;16.30;1.00;;;;;;5056493;28;20419;-86
2022/05/29 10:26:01;;;;;;;66.73;5.63;;;16.20;1.00;;;;;;5055062;28;20906;-88
2022/05/29 10:28:35;;;;;;;69.97;6.17;;;15.80;23.00;;;;;;5055868;28;20412;-87
2022/05/29 10:31:07;;;;;;;67.40;5.10;;;15.50;36.30;;;;;;5055508;28;20469;-87
2022/05/29 10:33:35;;;;;;;66.77;3.70;;;15.10;50.50;;;;;;5055946;28;20477;-87
2022/05/29 10:36:08;;;;;;;66.07;3.33;;;14.90;63.90;;;;;;5054474;28;20433;-87
2022/05/29 10:38:37;;;;;;;65.13;3.50;;;15.00;66.90;;;;;;5054014;28;20418;-85
2022/05/29 10:41:05;;;;;;;68.10;3.57;;;15.10;65.00;;;;;;5053851;28;20449;-86
2022/05/29 10:43:54;;;;;;;66.13;3.00;;;15.10;61.50;;;;;;5055461;28;20515;-87
2022/05/29 10:46:22;;;;;;;64.33;2.93;;;15.00;60.10;;;;;;5054197;28;20605;-86
2022/05/29 10:49:25;;;;;;;64.93;3.27;;;15.10;58.10;;;;;;5054557;28;20494;-86
2022/05/29 10:52:24;;;;;;;68.67;3.33;;;15.10;63.40;;;;;;5054383;28;20919;-88
2022/05/29 10:55:31;;;;;;;64.17;2.87;;;15.00;52.10;;;;;;5053601;28;20410;-87
2022/05/29 10:58:39;;;;;;;64.47;3.50;;;14.80;54.60;;;;;;5054717;28;20450;-87
2022/05/29 11:05:21;;;;;;;64.80;3.37;;;14.90;48.80;;;;;;5055072;28;20484;-87
2022/05/29 11:08:15;;;;;;;65.80;3.07;;;15.10;49.50;;;;;;5053990;28;20423;-87
2022/05/29 11:11:01;;;;;;;66.67;2.80;;;15.50;47.70;;;;;;5053792;28;20495;-87
2022/05/29 11:17:10;;;;;;;66.07;4.20;;;16.60;24.20;;;;;;5054784;28;20420;-87
2022/05/29 11:20:03;;;;;;;65.60;3.67;;;16.90;1.00;;;;;;5046994;28;20495;-87
2022/05/29 11:22:47;;;;;;;66.70;3.33;;;17.20;4.40;;;;;;5055070;28;20411;-87
2022/05/29 11:25:45;;;;;;;65.27;3.60;;;17.20;1.00;;;;;;5054738;28;20395;-86
2022/05/29 11:28:53;;;;;;;67.07;4.10;;;17.10;1.00;;;;;;5054424;28;20375;-87
2022/05/29 11:31:58;;;;;;;66.93;3.80;;;16.80;1.00;;;;;;5038753;28;20436;-86
2022/05/29 11:34:39;;;;;;;68.93;3.80;;;16.50;1.90;;;;;;5053638;28;20989;-87
2022/05/29 11:37:42;;;;;;;66.20;4.43;;;16.00;9.60;;;;;;5052958;28;20410;-86
2022/05/29 11:40:39;;;;;;;67.30;4.80;;;15.80;20.60;;;;;;5054029;28;20881;-86
2022/05/29 11:43:28;;;;;;;66.77;5.57;;;15.80;23.40;;;;;;5053276;28;20938;-87
2022/05/29 11:52:50;;;;;;;68.23;3.80;;;16.40;24.70;;;;;;5053921;28;20425;-86
2022/05/29 11:55:29;;;;;;;67.97;4.43;;;17.20;8.60;;;;;;5053616;28;20746;-86
2022/05/29 11:58:27;;;;;;;65.90;3.53;;;17.70;7.10;;;;;;5054125;28;20414;-86
2022/05/29 12:01:02;;;;;;;66.53;5.80;;;17.90;1.00;;;;;;5053555;28;20791;-86
2022/05/29 12:04:10;;;;;;;67.57;8.50;;;18.00;1.00;;;;;;5052448;28;20403;-86
2022/05/29 12:07:04;;;;;;;68.30;6.57;;;18.20;1.00;;;;;;5053735;28;20380;-86
2022/05/29 12:09:40;;;;;;;69.93;10.63;;;18.00;1.00;;;;;;5054029;28;20376;-86
2022/05/29 12:12:19;;;;;;;67.80;9.93;;;17.90;1.00;;;;;;5053701;28;20462;-86
2022/05/29 12:16:05;;;;;;;;;;;;;;;;;;;;;
2022/05/29 12:18:51;;;;;;;68.03;7.13;;;17.70;1.00;;;;;;5030504;28;20932;-86
2022/05/29 12:22:06;;;;;;;66.70;7.30;;;17.10;1.00;;;;;;5052157;28;20505;-86
2022/05/29 12:27:40;;;;;;;65.77;5.47;;;16.20;1.00;;;;;;5031399;28;20823;-86
2022/05/29 12:30:53;;;;;;;64.67;3.30;;;15.70;1.00;;;;;;5014996;28;20411;-86
2022/05/29 12:33:36;;;;;;;65.60;3.10;;;15.40;9.30;;;;;;5066104;28;20974;-87
2022/05/29 12:36:44;;;;;;;64.57;2.70;;;15.30;23.80;;;;;;5052343;28;20417;-88
2022/05/29 12:39:59;;;;;;;65.27;3.73;;;15.60;36.70;;;;;;5036469;28;20421;-89
2022/05/29 12:43:40;;;;;;;65.70;4.47;;;16.20;36.50;;;;;;5052435;28;20441;-88
2022/05/29 12:46:49;;;;;;;67.30;3.80;;;17.10;26.60;;;;;;5053249;28;20801;-89
2022/05/29 12:49:21;;;;;;;65.00;3.30;;;17.50;18.70;;;;;;5052879;28;20454;-88
2022/05/29 12:59:25;;;;;;;66.10;3.40;;;17.30;18.70;;;;;;5021429;28;20424;-87
2022/05/29 13:02:34;;;;;;;65.17;3.33;;;17.60;19.20;;;;;;5012121;22;21017;-87
2022/05/29 13:06:08;;;;;;;;;;;;;;;;;;;;;
2022/05/29 13:09:14;;;;;;;;;;;;;;;;;;;;;
2022/05/29 13:12:32;;;;;;;64.97;4.00;;;17.30;6.40;;;;;;4911725;28;20421;-86
2022/05/29 13:18:46;;;;;;;66.97;7.10;;;17.40;6.70;;;;;;4925182;29;20453;-86
2022/05/29 13:25:09;;;;;;;69.07;6.23;;;17.60;1.00;;;;;;4881349;29;20420;-86
2022/05/29 13:32:39;;;;;;;68.53;9.23;;;17.40;6.20;;;;;;4855597;29;20927;-86
2022/05/29 13:38:49;;;;;;;66.63;3.70;;;16.90;17.80;;;;;;4920600;29;20402;-87
2022/05/29 13:41:52;;;;;;;66.77;4.07;;;16.90;25.70;;;;;;4895401;23;20565;-87
2022/05/29 13:44:44;;;;;;;68.17;3.90;;;16.70;28.70;;;;;;5055209;28;20869;-86
2022/05/29 13:47:22;;;;;;;66.67;3.90;;;17.10;21.90;;;;;;5056199;28;20395;-86
2022/05/29 13:50:15;;;;;;;65.97;3.40;;;17.40;20.70;;;;;;5056197;28;20375;-86
2022/05/29 13:53:03;;;;;;;66.17;5.77;;;17.90;14.60;;;;;;5054806;28;20833;-86
2022/05/29 14:12:12;;;;;;;66.90;4.70;;;18.20;1.00;;;;;;5051875;28;20470;-86
2022/05/29 14:15:57;;;;;;;66.70;6.40;;;18.10;1.00;;;;;;5054513;28;20399;-86
2022/05/29 14:18:22;;;;;;;68.97;6.90;;;18.10;1.00;;;;;;5048145;28;20402;-86
2022/05/29 14:21:35;;;;;;;66.07;4.90;;;18.10;1.00;;;;;;5053694;28;20450;-86
2022/05/29 14:24:44;;;;;;;65.50;2.93;;;18.30;1.00;;;;;;5054039;28;20415;-86
2022/05/29 14:28:02;;;;;;;65.83;2.57;;;18.50;1.00;;;;;;5054791;28;20395;-87
2022/05/29 14:31:02;;;;;;;67.57;2.30;;;18.70;1.00;;;;;;5055716;28;20839;-86
2022/05/29 14:33:55;;;;;;;65.27;2.50;;;18.70;1.00;;;;;;5054615;28;20952;-85
2022/05/29 14:36:42;;;;;;;65.47;2.40;;;18.70;1.00;;;;;;5055759;28;20449;-87
2022/05/29 14:39:35;;;;;;;66.20;2.70;;;18.40;1.00;;;;;;5054093;28;20409;-87
2022/05/29 14:42:59;;;;;;;65.87;2.50;;;18.40;1.00;;;;;;5054236;28;20834;-87
2022/05/29 14:45:32;;;;;;;65.53;2.60;;;18.50;1.00;;;;;;5055065;28;20902;-86
2022/05/29 14:48:55;;;;;;;65.53;3.10;;;18.40;1.00;;;;;;5054910;28;20982;-86
2022/05/29 14:52:10;;;;;;;64.60;2.60;;;18.50;1.00;;;;;;5041089;28;20439;-86